sensor_id;sensor_type;location;lat;lon;timestamp;temperature;humidity
10278;DHT22;5184;51.376;7.148;2023-10-19T00:02:04;11.70;99.90
10278;DHT22;5184;51.376;7.148;2023-10-19T00:04:31;11.70;99.90
10278;DHT22;5184;51.376;7.148;2023-10-19T00:06:58;11.80;99.90
10278;DHT22;5184;51.376;7.148;2023-10-19T00:09:26;11.90;99.90
10278;DHT22;5184;51.376;7.148;2023-10-19T00:11:52;11.90;99.90
10278;DHT22;5184;51.376;7.148;2023-10-19T00:14:19;12.00;99.90
10278;DHT22;5184;51.376;7.148;2023-10-19T00:16:45;12.10;99.90
10278;DHT22;5184;51.376;7.148;2023-10-19T00:19:22;12.10;99.90
10278;DHT22;5184;51.376;7.148;2023-10-19T00:21:48;12.20;99.90
10278;DHT22;5184;51.376;7.148;2023-10-19T00:24:19;12.20;99.90
10278;DHT22;5184;51.376;7.148;2023-10-19T00:26:45;12.20;99.90
10278;DHT22;5184;51.376;7.148;2023-10-19T00:29:13;12.20;99.90
10278;DHT22;5184;51.376;7.148;2023-10-19T00:31:44;12.20;99.90
10278;DHT22;5184;51.376;7.148;2023-10-19T00:34:11;12.20;99.90
10278;DHT22;5184;51.376;7.148;2023-10-19T00:36:37;12.20;99.90
10278;DHT22;5184;51.376;7.148;2023-10-19T00:39:04;12.20;99.90
10278;DHT22;5184;51.376;7.148;2023-10-19T00:41:31;12.20;99.90
10278;DHT22;5184;51.376;7.148;2023-10-19T00:43:59;12.20;99.90
10278;DHT22;5184;51.376;7.148;2023-10-19T00:46:29;12.20;99.90
10278;DHT22;5184;51.376;7.148;2023-10-19T00:49:01;12.20;99.90
10278;DHT22;5184;51.376;7.148;2023-10-19T00:51:29;12.20;99.90
10278;DHT22;5184;51.376;7.148;2023-10-19T00:54:12;12.20;99.90
10278;DHT22;5184;51.376;7.148;2023-10-19T00:56:37;12.20;99.90
10278;DHT22;5184;51.376;7.148;2023-10-19T00:59:03;12.20;99.90
10278;DHT22;5184;51.376;7.148;2023-10-19T01:01:36;12.20;99.90
10278;DHT22;5184;51.376;7.148;2023-10-19T01:04:04;12.20;99.90
10278;DHT22;5184;51.376;7.148;2023-10-19T01:06:30;12.10;99.90
10278;DHT22;5184;51.376;7.148;2023-10-19T01:08:57;12.20;99.90
10278;DHT22;5184;51.376;7.148;2023-10-19T01:11:24;12.20;99.90
10278;DHT22;5184;51.376;7.148;2023-10-19T01:13:51;12.30;99.90
10278;DHT22;5184;51.376;7.148;2023-10-19T01:16:18;12.30;99.90
10278;DHT22;5184;51.376;7.148;2023-10-19T01:18:47;12.30;99.90
10278;DHT22;5184;51.376;7.148;2023-10-19T01:21:14;12.40;99.90
10278;DHT22;5184;51.376;7.148;2023-10-19T01:23:41;12.40;99.90
10278;DHT22;5184;51.376;7.148;2023-10-19T01:26:08;12.50;99.90
10278;DHT22;5184;51.376;7.148;2023-10-19T01:28:35;12.50;99.90
10278;DHT22;5184;51.376;7.148;2023-10-19T01:31:10;12.60;99.90
10278;DHT22;5184;51.376;7.148;2023-10-19T01:33:43;12.60;99.90
10278;DHT22;5184;51.376;7.148;2023-10-19T01:36:11;12.70;99.90
10278;DHT22;5184;51.376;7.148;2023-10-19T01:38:38;12.80;99.90
10278;DHT22;5184;51.376;7.148;2023-10-19T01:41:06;12.90;99.90
10278;DHT22;5184;51.376;7.148;2023-10-19T01:43:32;12.90;99.90
10278;DHT22;5184;51.376;7.148;2023-10-19T01:45:59;13.00;99.90
10278;DHT22;5184;51.376;7.148;2023-10-19T01:48:25;13.00;99.90
10278;DHT22;5184;51.376;7.148;2023-10-19T01:50:54;13.00;99.90
10278;DHT22;5184;51.376;7.148;2023-10-19T01:53:20;13.00;99.90
10278;DHT22;5184;51.376;7.148;2023-10-19T01:55:47;13.10;99.90
10278;DHT22;5184;51.376;7.148;2023-10-19T01:58:13;13.10;99.90
10278;DHT22;5184;51.376;7.148;2023-10-19T02:00:41;13.10;99.90
10278;DHT22;5184;51.376;7.148;2023-10-19T02:03:08;13.10;99.90
10278;DHT22;5184;51.376;7.148;2023-10-19T02:05:35;13.10;99.90
10278;DHT22;5184;51.376;7.148;2023-10-19T02:08:10;13.10;99.90
10278;DHT22;5184;51.376;7.148;2023-10-19T02:10:37;13.00;99.90
10278;DHT22;5184;51.376;7.148;2023-10-19T02:13:04;13.00;99.90
10278;DHT22;5184;51.376;7.148;2023-10-19T02:15:32;13.00;99.90
10278;DHT22;5184;51.376;7.148;2023-10-19T02:17:58;13.00;99.90
10278;DHT22;5184;51.376;7.148;2023-10-19T02:20:25;13.00;99.90
10278;DHT22;5184;51.376;7.148;2023-10-19T02:22:51;13.00;99.90
10278;DHT22;5184;51.376;7.148;2023-10-19T02:25:18;13.00;99.90
10278;DHT22;5184;51.376;7.148;2023-10-19T02:27:45;13.00;99.90
10278;DHT22;5184;51.376;7.148;2023-10-19T02:30:12;13.00;99.90
10278;DHT22;5184;51.376;7.148;2023-10-19T02:32:39;13.00;99.90
10278;DHT22;5184;51.376;7.148;2023-10-19T02:35:06;13.00;99.90
10278;DHT22;5184;51.376;7.148;2023-10-19T02:37:33;13.00;99.90
10278;DHT22;5184;51.376;7.148;2023-10-19T02:40:00;13.00;99.90
10278;DHT22;5184;51.376;7.148;2023-10-19T02:42:28;13.00;99.90
10278;DHT22;5184;51.376;7.148;2023-10-19T02:44:54;13.00;99.90
10278;DHT22;5184;51.376;7.148;2023-10-19T02:47:21;13.00;99.90
10278;DHT22;5184;51.376;7.148;2023-10-19T02:49:48;13.00;99.90
10278;DHT22;5184;51.376;7.148;2023-10-19T02:52:14;13.00;99.90
10278;DHT22;5184;51.376;7.148;2023-10-19T02:54:41;13.10;99.90
10278;DHT22;5184;51.376;7.148;2023-10-19T02:57:08;13.10;99.90
10278;DHT22;5184;51.376;7.148;2023-10-19T02:59:35;13.10;99.90
10278;DHT22;5184;51.376;7.148;2023-10-19T03:02:02;13.10;99.90
10278;DHT22;5184;51.376;7.148;2023-10-19T03:04:44;13.20;99.90
10278;DHT22;5184;51.376;7.148;2023-10-19T03:07:11;13.20;99.90
10278;DHT22;5184;51.376;7.148;2023-10-19T03:09:38;13.20;99.90
10278;DHT22;5184;51.376;7.148;2023-10-19T03:12:05;13.30;99.90
10278;DHT22;5184;51.376;7.148;2023-10-19T03:14:32;13.30;99.90
10278;DHT22;5184;51.376;7.148;2023-10-19T03:16:58;13.30;99.90
10278;DHT22;5184;51.376;7.148;2023-10-19T03:19:26;13.20;99.90
10278;DHT22;5184;51.376;7.148;2023-10-19T03:21:53;13.20;99.90
10278;DHT22;5184;51.376;7.148;2023-10-19T03:24:20;13.20;99.90
10278;DHT22;5184;51.376;7.148;2023-10-19T03:26:50;13.20;99.90
10278;DHT22;5184;51.376;7.148;2023-10-19T03:29:16;13.20;99.90
10278;DHT22;5184;51.376;7.148;2023-10-19T03:31:45;13.20;99.90
10278;DHT22;5184;51.376;7.148;2023-10-19T03:34:12;13.20;99.90
10278;DHT22;5184;51.376;7.148;2023-10-19T03:36:39;13.20;99.90
10278;DHT22;5184;51.376;7.148;2023-10-19T03:39:05;13.20;99.90
10278;DHT22;5184;51.376;7.148;2023-10-19T03:41:39;13.30;99.90
10278;DHT22;5184;51.376;7.148;2023-10-19T03:44:06;13.30;99.90
10278;DHT22;5184;51.376;7.148;2023-10-19T03:46:33;13.30;99.90
10278;DHT22;5184;51.376;7.148;2023-10-19T03:49:00;13.30;99.90
10278;DHT22;5184;51.376;7.148;2023-10-19T03:51:26;13.30;99.90
10278;DHT22;5184;51.376;7.148;2023-10-19T03:53:53;13.30;99.90
10278;DHT22;5184;51.376;7.148;2023-10-19T03:56:21;13.30;99.90
10278;DHT22;5184;51.376;7.148;2023-10-19T03:58:48;13.30;99.90
10278;DHT22;5184;51.376;7.148;2023-10-19T04:01:14;13.30;99.90
10278;DHT22;5184;51.376;7.148;2023-10-19T04:03:41;13.30;99.90
10278;DHT22;5184;51.376;7.148;2023-10-19T04:06:08;13.30;99.90
10278;DHT22;5184;51.376;7.148;2023-10-19T04:08:34;13.30;99.90
10278;DHT22;5184;51.376;7.148;2023-10-19T04:11:01;13.20;99.90
10278;DHT22;5184;51.376;7.148;2023-10-19T04:13:33;13.20;99.90
10278;DHT22;5184;51.376;7.148;2023-10-19T04:16:00;13.20;99.90
10278;DHT22;5184;51.376;7.148;2023-10-19T04:18:26;13.30;99.90
10278;DHT22;5184;51.376;7.148;2023-10-19T04:20:53;13.30;99.90
10278;DHT22;5184;51.376;7.148;2023-10-19T04:23:21;13.20;99.90
10278;DHT22;5184;51.376;7.148;2023-10-19T04:25:47;13.20;99.90
10278;DHT22;5184;51.376;7.148;2023-10-19T04:28:14;13.20;99.90
10278;DHT22;5184;51.376;7.148;2023-10-19T04:30:41;13.20;99.90
10278;DHT22;5184;51.376;7.148;2023-10-19T04:33:07;13.20;99.90
10278;DHT22;5184;51.376;7.148;2023-10-19T04:35:36;13.20;99.90
10278;DHT22;5184;51.376;7.148;2023-10-19T04:38:04;13.10;99.90
10278;DHT22;5184;51.376;7.148;2023-10-19T04:40:33;13.10;99.90
10278;DHT22;5184;51.376;7.148;2023-10-19T04:43:01;13.10;99.90
10278;DHT22;5184;51.376;7.148;2023-10-19T04:45:27;13.10;99.90
10278;DHT22;5184;51.376;7.148;2023-10-19T04:47:55;13.10;99.90
10278;DHT22;5184;51.376;7.148;2023-10-19T04:50:21;13.10;99.90
10278;DHT22;5184;51.376;7.148;2023-10-19T04:52:48;13.10;99.90
10278;DHT22;5184;51.376;7.148;2023-10-19T04:55:15;13.10;99.90
10278;DHT22;5184;51.376;7.148;2023-10-19T04:57:41;13.10;99.90
10278;DHT22;5184;51.376;7.148;2023-10-19T05:00:08;13.10;99.90
10278;DHT22;5184;51.376;7.148;2023-10-19T05:02:35;13.10;99.90
10278;DHT22;5184;51.376;7.148;2023-10-19T05:05:02;13.10;99.90
10278;DHT22;5184;51.376;7.148;2023-10-19T05:07:29;13.10;99.90
10278;DHT22;5184;51.376;7.148;2023-10-19T05:09:56;13.10;99.90
10278;DHT22;5184;51.376;7.148;2023-10-19T05:12:23;13.10;99.90
10278;DHT22;5184;51.376;7.148;2023-10-19T05:14:49;13.10;99.90
10278;DHT22;5184;51.376;7.148;2023-10-19T05:17:16;13.10;99.90
10278;DHT22;5184;51.376;7.148;2023-10-19T05:19:43;13.10;99.90
10278;DHT22;5184;51.376;7.148;2023-10-19T05:22:09;13.00;99.90
10278;DHT22;5184;51.376;7.148;2023-10-19T05:24:37;13.00;99.90
10278;DHT22;5184;51.376;7.148;2023-10-19T05:27:04;13.00;99.90
10278;DHT22;5184;51.376;7.148;2023-10-19T05:29:31;13.00;99.90
10278;DHT22;5184;51.376;7.148;2023-10-19T05:31:59;13.10;99.90
10278;DHT22;5184;51.376;7.148;2023-10-19T05:34:25;13.10;99.90
10278;DHT22;5184;51.376;7.148;2023-10-19T05:36:52;13.10;99.90
10278;DHT22;5184;51.376;7.148;2023-10-19T05:39:19;13.20;99.90
10278;DHT22;5184;51.376;7.148;2023-10-19T05:41:46;13.20;99.90
10278;DHT22;5184;51.376;7.148;2023-10-19T05:44:12;13.10;99.90
10278;DHT22;5184;51.376;7.148;2023-10-19T05:46:40;13.10;99.90
10278;DHT22;5184;51.376;7.148;2023-10-19T05:49:07;13.10;99.90
10278;DHT22;5184;51.376;7.148;2023-10-19T05:51:34;13.10;99.90
10278;DHT22;5184;51.376;7.148;2023-10-19T05:54:01;13.10;99.90
10278;DHT22;5184;51.376;7.148;2023-10-19T05:56:28;13.10;99.90
10278;DHT22;5184;51.376;7.148;2023-10-19T05:58:54;13.10;99.90
10278;DHT22;5184;51.376;7.148;2023-10-19T06:01:21;13.10;99.90
10278;DHT22;5184;51.376;7.148;2023-10-19T06:03:47;13.10;99.90
10278;DHT22;5184;51.376;7.148;2023-10-19T06:06:15;13.10;99.90
10278;DHT22;5184;51.376;7.148;2023-10-19T06:08:42;13.20;99.90
10278;DHT22;5184;51.376;7.148;2023-10-19T06:11:09;13.10;99.90
10278;DHT22;5184;51.376;7.148;2023-10-19T06:13:35;13.10;99.90
10278;DHT22;5184;51.376;7.148;2023-10-19T06:16:02;13.20;99.90
10278;DHT22;5184;51.376;7.148;2023-10-19T06:18:28;13.20;99.90
10278;DHT22;5184;51.376;7.148;2023-10-19T06:20:56;13.20;99.90
10278;DHT22;5184;51.376;7.148;2023-10-19T06:23:22;13.20;99.90
10278;DHT22;5184;51.376;7.148;2023-10-19T06:25:51;13.20;99.90
10278;DHT22;5184;51.376;7.148;2023-10-19T06:28:18;13.10;99.90
10278;DHT22;5184;51.376;7.148;2023-10-19T06:30:45;13.20;99.90
10278;DHT22;5184;51.376;7.148;2023-10-19T06:33:12;13.10;99.90
10278;DHT22;5184;51.376;7.148;2023-10-19T06:35:39;13.20;99.90
10278;DHT22;5184;51.376;7.148;2023-10-19T06:38:07;13.20;99.90
10278;DHT22;5184;51.376;7.148;2023-10-19T06:40:34;13.10;99.90
10278;DHT22;5184;51.376;7.148;2023-10-19T06:43:00;13.10;99.90
10278;DHT22;5184;51.376;7.148;2023-10-19T06:45:26;13.20;99.90
10278;DHT22;5184;51.376;7.148;2023-10-19T06:47:53;13.20;99.90
10278;DHT22;5184;51.376;7.148;2023-10-19T06:50:20;13.20;99.90
10278;DHT22;5184;51.376;7.148;2023-10-19T06:52:47;13.20;99.90
10278;DHT22;5184;51.376;7.148;2023-10-19T06:55:17;13.20;99.90
10278;DHT22;5184;51.376;7.148;2023-10-19T06:57:43;13.20;99.90
10278;DHT22;5184;51.376;7.148;2023-10-19T07:00:12;13.20;99.90
10278;DHT22;5184;51.376;7.148;2023-10-19T07:02:42;13.20;99.90
10278;DHT22;5184;51.376;7.148;2023-10-19T07:05:09;13.40;99.90
10278;DHT22;5184;51.376;7.148;2023-10-19T07:07:40;13.30;99.90
10278;DHT22;5184;51.376;7.148;2023-10-19T07:10:06;13.30;99.90
10278;DHT22;5184;51.376;7.148;2023-10-19T07:12:32;13.30;99.90
10278;DHT22;5184;51.376;7.148;2023-10-19T07:14:59;13.30;99.90
10278;DHT22;5184;51.376;7.148;2023-10-19T07:17:25;13.30;99.90
10278;DHT22;5184;51.376;7.148;2023-10-19T07:19:53;13.40;99.90
10278;DHT22;5184;51.376;7.148;2023-10-19T07:22:20;13.50;99.90
10278;DHT22;5184;51.376;7.148;2023-10-19T07:24:47;13.40;99.90
10278;DHT22;5184;51.376;7.148;2023-10-19T07:27:13;13.50;99.90
10278;DHT22;5184;51.376;7.148;2023-10-19T07:29:40;13.50;99.90
10278;DHT22;5184;51.376;7.148;2023-10-19T07:32:06;13.50;99.90
10278;DHT22;5184;51.376;7.148;2023-10-19T07:34:33;13.50;99.90
10278;DHT22;5184;51.376;7.148;2023-10-19T07:37:00;13.60;99.90
10278;DHT22;5184;51.376;7.148;2023-10-19T07:39:27;13.60;99.90
10278;DHT22;5184;51.376;7.148;2023-10-19T07:41:55;13.60;99.90
10278;DHT22;5184;51.376;7.148;2023-10-19T07:44:21;13.60;99.90
10278;DHT22;5184;51.376;7.148;2023-10-19T07:46:47;13.60;99.90
10278;DHT22;5184;51.376;7.148;2023-10-19T07:49:14;13.60;99.90
10278;DHT22;5184;51.376;7.148;2023-10-19T07:51:44;13.60;99.90
10278;DHT22;5184;51.376;7.148;2023-10-19T07:54:07;13.60;99.90
10278;DHT22;5184;51.376;7.148;2023-10-19T07:56:35;13.60;99.90
10278;DHT22;5184;51.376;7.148;2023-10-19T07:59:02;13.70;99.90
10278;DHT22;5184;51.376;7.148;2023-10-19T08:01:29;13.70;99.90
10278;DHT22;5184;51.376;7.148;2023-10-19T08:03:55;13.70;99.90
10278;DHT22;5184;51.376;7.148;2023-10-19T08:06:22;13.80;99.90
10278;DHT22;5184;51.376;7.148;2023-10-19T08:08:48;13.90;99.90
10278;DHT22;5184;51.376;7.148;2023-10-19T08:11:15;13.90;99.90
10278;DHT22;5184;51.376;7.148;2023-10-19T08:13:42;14.00;99.90
10278;DHT22;5184;51.376;7.148;2023-10-19T08:16:10;14.00;99.90
10278;DHT22;5184;51.376;7.148;2023-10-19T08:18:36;14.00;99.90
10278;DHT22;5184;51.376;7.148;2023-10-19T08:21:03;14.00;99.90
10278;DHT22;5184;51.376;7.148;2023-10-19T08:23:29;14.10;99.90
10278;DHT22;5184;51.376;7.148;2023-10-19T08:25:56;14.10;99.90
10278;DHT22;5184;51.376;7.148;2023-10-19T08:28:23;14.20;99.90
10278;DHT22;5184;51.376;7.148;2023-10-19T08:30:50;14.20;99.90
10278;DHT22;5184;51.376;7.148;2023-10-19T08:33:24;14.20;99.90
10278;DHT22;5184;51.376;7.148;2023-10-19T08:35:52;14.30;99.90
10278;DHT22;5184;51.376;7.148;2023-10-19T08:38:17;14.30;99.90
10278;DHT22;5184;51.376;7.148;2023-10-19T08:40:44;14.40;99.90
10278;DHT22;5184;51.376;7.148;2023-10-19T08:43:11;14.50;99.90
10278;DHT22;5184;51.376;7.148;2023-10-19T08:45:37;14.60;99.90
10278;DHT22;5184;51.376;7.148;2023-10-19T08:48:04;14.70;99.90
10278;DHT22;5184;51.376;7.148;2023-10-19T08:50:32;14.80;99.90
10278;DHT22;5184;51.376;7.148;2023-10-19T08:52:59;15.00;99.90
10278;DHT22;5184;51.376;7.148;2023-10-19T08:55:26;15.10;99.90
10278;DHT22;5184;51.376;7.148;2023-10-19T08:57:52;15.10;99.90
10278;DHT22;5184;51.376;7.148;2023-10-19T09:00:19;15.30;99.90
10278;DHT22;5184;51.376;7.148;2023-10-19T09:02:45;15.40;99.90
10278;DHT22;5184;51.376;7.148;2023-10-19T09:05:12;15.50;99.90
10278;DHT22;5184;51.376;7.148;2023-10-19T09:07:45;15.50;99.90
10278;DHT22;5184;51.376;7.148;2023-10-19T09:10:11;15.60;99.90
10278;DHT22;5184;51.376;7.148;2023-10-19T09:12:38;15.60;99.90
10278;DHT22;5184;51.376;7.148;2023-10-19T09:15:08;15.70;99.90
10278;DHT22;5184;51.376;7.148;2023-10-19T09:17:33;15.70;99.90
10278;DHT22;5184;51.376;7.148;2023-10-19T09:20:00;15.70;99.90
10278;DHT22;5184;51.376;7.148;2023-10-19T09:22:26;15.70;99.90
10278;DHT22;5184;51.376;7.148;2023-10-19T09:24:54;15.70;99.90
10278;DHT22;5184;51.376;7.148;2023-10-19T09:27:21;15.80;99.90
10278;DHT22;5184;51.376;7.148;2023-10-19T09:29:48;15.70;99.90
10278;DHT22;5184;51.376;7.148;2023-10-19T09:32:14;15.80;99.90
10278;DHT22;5184;51.376;7.148;2023-10-19T09:34:41;15.80;99.90
10278;DHT22;5184;51.376;7.148;2023-10-19T09:37:10;15.90;99.90
10278;DHT22;5184;51.376;7.148;2023-10-19T09:39:36;16.00;99.90
10278;DHT22;5184;51.376;7.148;2023-10-19T09:42:06;16.10;99.90
10278;DHT22;5184;51.376;7.148;2023-10-19T09:44:39;16.30;99.90
10278;DHT22;5184;51.376;7.148;2023-10-19T09:46:59;16.30;99.90
10278;DHT22;5184;51.376;7.148;2023-10-19T09:49:26;16.40;99.90
10278;DHT22;5184;51.376;7.148;2023-10-19T09:51:52;16.40;99.90
10278;DHT22;5184;51.376;7.148;2023-10-19T09:54:22;16.50;99.90
10278;DHT22;5184;51.376;7.148;2023-10-19T09:56:49;16.50;99.90
10278;DHT22;5184;51.376;7.148;2023-10-19T09:59:28;16.60;99.90
10278;DHT22;5184;51.376;7.148;2023-10-19T10:02:10;16.60;99.90
10278;DHT22;5184;51.376;7.148;2023-10-19T10:04:37;16.60;99.90
10278;DHT22;5184;51.376;7.148;2023-10-19T10:07:05;16.60;99.90
10278;DHT22;5184;51.376;7.148;2023-10-19T10:09:31;16.60;99.90
10278;DHT22;5184;51.376;7.148;2023-10-19T10:11:57;16.60;99.90
10278;DHT22;5184;51.376;7.148;2023-10-19T10:14:25;16.60;99.90
10278;DHT22;5184;51.376;7.148;2023-10-19T10:17:00;16.70;99.90
10278;DHT22;5184;51.376;7.148;2023-10-19T10:19:26;16.70;99.90
10278;DHT22;5184;51.376;7.148;2023-10-19T10:22:03;16.90;99.90
10278;DHT22;5184;51.376;7.148;2023-10-19T10:24:29;16.90;99.90
10278;DHT22;5184;51.376;7.148;2023-10-19T10:26:58;17.00;99.90
10278;DHT22;5184;51.376;7.148;2023-10-19T10:29:24;17.00;99.90
10278;DHT22;5184;51.376;7.148;2023-10-19T10:31:52;17.00;99.90
10278;DHT22;5184;51.376;7.148;2023-10-19T10:34:44;17.00;99.90
10278;DHT22;5184;51.376;7.148;2023-10-19T10:37:11;17.00;99.90
10278;DHT22;5184;51.376;7.148;2023-10-19T10:39:38;17.10;99.90
10278;DHT22;5184;51.376;7.148;2023-10-19T10:42:05;17.10;99.90
10278;DHT22;5184;51.376;7.148;2023-10-19T10:44:43;17.20;99.90
10278;DHT22;5184;51.376;7.148;2023-10-19T10:47:12;17.40;99.90
10278;DHT22;5184;51.376;7.148;2023-10-19T10:49:47;17.30;99.90
10278;DHT22;5184;51.376;7.148;2023-10-19T10:52:13;17.40;99.90
10278;DHT22;5184;51.376;7.148;2023-10-19T10:54:39;17.40;99.90
10278;DHT22;5184;51.376;7.148;2023-10-19T10:57:07;17.50;99.90
10278;DHT22;5184;51.376;7.148;2023-10-19T10:59:33;17.40;99.90
10278;DHT22;5184;51.376;7.148;2023-10-19T11:02:00;17.40;99.90
10278;DHT22;5184;51.376;7.148;2023-10-19T11:04:26;17.40;99.90
10278;DHT22;5184;51.376;7.148;2023-10-19T11:06:53;17.40;99.90
10278;DHT22;5184;51.376;7.148;2023-10-19T11:09:20;17.40;99.90
10278;DHT22;5184;51.376;7.148;2023-10-19T11:11:47;17.50;99.90
10278;DHT22;5184;51.376;7.148;2023-10-19T11:14:14;17.70;99.90
10278;DHT22;5184;51.376;7.148;2023-10-19T11:16:42;17.70;99.90
10278;DHT22;5184;51.376;7.148;2023-10-19T11:19:08;17.70;99.90
10278;DHT22;5184;51.376;7.148;2023-10-19T11:21:35;17.80;99.90
10278;DHT22;5184;51.376;7.148;2023-10-19T11:24:02;17.80;99.90
10278;DHT22;5184;51.376;7.148;2023-10-19T11:26:28;17.70;99.90
10278;DHT22;5184;51.376;7.148;2023-10-19T11:29:01;17.70;99.90
10278;DHT22;5184;51.376;7.148;2023-10-19T11:31:28;17.80;99.90
10278;DHT22;5184;51.376;7.148;2023-10-19T11:33:55;17.90;99.90
10278;DHT22;5184;51.376;7.148;2023-10-19T11:36:23;17.90;99.90
10278;DHT22;5184;51.376;7.148;2023-10-19T11:38:50;17.90;99.90
10278;DHT22;5184;51.376;7.148;2023-10-19T11:41:16;18.00;99.90
10278;DHT22;5184;51.376;7.148;2023-10-19T11:43:44;18.00;99.90
10278;DHT22;5184;51.376;7.148;2023-10-19T11:46:09;18.00;99.90
10278;DHT22;5184;51.376;7.148;2023-10-19T11:48:36;18.00;99.90
10278;DHT22;5184;51.376;7.148;2023-10-19T11:51:03;17.90;99.90
10278;DHT22;5184;51.376;7.148;2023-10-19T11:53:33;17.90;99.90
10278;DHT22;5184;51.376;7.148;2023-10-19T11:56:00;17.90;99.90
10278;DHT22;5184;51.376;7.148;2023-10-19T11:58:25;17.90;99.90
10278;DHT22;5184;51.376;7.148;2023-10-19T12:00:53;17.90;99.90
10278;DHT22;5184;51.376;7.148;2023-10-19T12:03:20;17.90;99.90
10278;DHT22;5184;51.376;7.148;2023-10-19T12:05:48;18.00;99.90
10278;DHT22;5184;51.376;7.148;2023-10-19T12:08:14;17.90;99.90
10278;DHT22;5184;51.376;7.148;2023-10-19T12:10:41;18.00;99.90
10278;DHT22;5184;51.376;7.148;2023-10-19T12:13:07;18.10;99.90
10278;DHT22;5184;51.376;7.148;2023-10-19T12:15:34;18.20;99.90
10278;DHT22;5184;51.376;7.148;2023-10-19T12:18:01;18.10;99.90
10278;DHT22;5184;51.376;7.148;2023-10-19T12:20:28;18.20;99.90
10278;DHT22;5184;51.376;7.148;2023-10-19T12:22:54;18.20;99.90
10278;DHT22;5184;51.376;7.148;2023-10-19T12:25:21;18.20;99.90
10278;DHT22;5184;51.376;7.148;2023-10-19T12:27:47;18.00;99.90
10278;DHT22;5184;51.376;7.148;2023-10-19T12:30:15;18.00;99.90
10278;DHT22;5184;51.376;7.148;2023-10-19T12:32:43;18.00;99.90
10278;DHT22;5184;51.376;7.148;2023-10-19T12:35:10;18.00;99.90
10278;DHT22;5184;51.376;7.148;2023-10-19T12:37:37;18.00;99.90
10278;DHT22;5184;51.376;7.148;2023-10-19T12:40:05;18.00;99.90
10278;DHT22;5184;51.376;7.148;2023-10-19T12:42:32;17.90;99.90
10278;DHT22;5184;51.376;7.148;2023-10-19T12:45:00;17.90;99.90
10278;DHT22;5184;51.376;7.148;2023-10-19T12:47:27;17.80;99.90
10278;DHT22;5184;51.376;7.148;2023-10-19T12:49:54;17.80;99.90
10278;DHT22;5184;51.376;7.148;2023-10-19T12:52:20;17.80;99.90
10278;DHT22;5184;51.376;7.148;2023-10-19T12:54:47;17.80;99.90
10278;DHT22;5184;51.376;7.148;2023-10-19T12:57:14;17.90;99.90
10278;DHT22;5184;51.376;7.148;2023-10-19T12:59:41;18.10;99.90
10278;DHT22;5184;51.376;7.148;2023-10-19T13:02:08;17.90;99.90
10278;DHT22;5184;51.376;7.148;2023-10-19T13:04:35;17.90;99.90
10278;DHT22;5184;51.376;7.148;2023-10-19T13:07:02;17.90;99.90
10278;DHT22;5184;51.376;7.148;2023-10-19T13:09:29;17.90;99.90
10278;DHT22;5184;51.376;7.148;2023-10-19T13:11:57;17.90;99.90
10278;DHT22;5184;51.376;7.148;2023-10-19T13:14:24;17.90;99.90
10278;DHT22;5184;51.376;7.148;2023-10-19T13:16:50;17.90;99.90
10278;DHT22;5184;51.376;7.148;2023-10-19T13:19:18;17.80;99.90
10278;DHT22;5184;51.376;7.148;2023-10-19T13:21:44;17.70;99.90
10278;DHT22;5184;51.376;7.148;2023-10-19T13:24:11;17.60;99.90
10278;DHT22;5184;51.376;7.148;2023-10-19T13:26:38;17.50;99.90
10278;DHT22;5184;51.376;7.148;2023-10-19T13:29:04;17.50;99.90
10278;DHT22;5184;51.376;7.148;2023-10-19T13:31:31;17.40;99.90
10278;DHT22;5184;51.376;7.148;2023-10-19T13:33:57;17.40;99.90
10278;DHT22;5184;51.376;7.148;2023-10-19T13:36:25;17.40;99.90
10278;DHT22;5184;51.376;7.148;2023-10-19T13:38:51;17.30;99.90
10278;DHT22;5184;51.376;7.148;2023-10-19T13:41:18;17.20;99.90
10278;DHT22;5184;51.376;7.148;2023-10-19T13:43:44;17.10;99.90
10278;DHT22;5184;51.376;7.148;2023-10-19T13:46:12;17.00;99.90
10278;DHT22;5184;51.376;7.148;2023-10-19T13:48:38;17.00;99.90
10278;DHT22;5184;51.376;7.148;2023-10-19T13:51:05;17.00;99.90
10278;DHT22;5184;51.376;7.148;2023-10-19T13:53:42;16.90;99.90
10278;DHT22;5184;51.376;7.148;2023-10-19T13:56:09;16.80;99.90
10278;DHT22;5184;51.376;7.148;2023-10-19T13:58:37;16.90;99.90
10278;DHT22;5184;51.376;7.148;2023-10-19T14:01:06;16.80;99.90
10278;DHT22;5184;51.376;7.148;2023-10-19T14:03:29;16.90;99.90
10278;DHT22;5184;51.376;7.148;2023-10-19T14:05:56;16.90;99.90
10278;DHT22;5184;51.376;7.148;2023-10-19T14:08:23;16.90;99.90
10278;DHT22;5184;51.376;7.148;2023-10-19T14:10:51;17.00;99.90
10278;DHT22;5184;51.376;7.148;2023-10-19T14:13:18;16.90;99.90
10278;DHT22;5184;51.376;7.148;2023-10-19T14:15:45;17.00;99.90
10278;DHT22;5184;51.376;7.148;2023-10-19T14:18:12;17.00;99.90
10278;DHT22;5184;51.376;7.148;2023-10-19T14:20:39;17.00;99.90
10278;DHT22;5184;51.376;7.148;2023-10-19T14:23:05;16.90;99.90
10278;DHT22;5184;51.376;7.148;2023-10-19T14:25:35;16.90;99.90
10278;DHT22;5184;51.376;7.148;2023-10-19T14:27:59;16.90;99.90
10278;DHT22;5184;51.376;7.148;2023-10-19T14:30:26;16.80;99.90
10278;DHT22;5184;51.376;7.148;2023-10-19T14:32:52;16.80;99.90
10278;DHT22;5184;51.376;7.148;2023-10-19T14:35:20;16.70;99.90
10278;DHT22;5184;51.376;7.148;2023-10-19T14:37:48;16.70;99.90
10278;DHT22;5184;51.376;7.148;2023-10-19T14:40:16;16.70;99.90
10278;DHT22;5184;51.376;7.148;2023-10-19T14:42:42;16.60;99.90
10278;DHT22;5184;51.376;7.148;2023-10-19T14:45:11;16.60;99.90
10278;DHT22;5184;51.376;7.148;2023-10-19T14:47:37;16.50;99.90
10278;DHT22;5184;51.376;7.148;2023-10-19T14:50:05;16.50;99.90
10278;DHT22;5184;51.376;7.148;2023-10-19T14:52:32;16.50;99.90
10278;DHT22;5184;51.376;7.148;2023-10-19T14:54:58;16.50;99.90
10278;DHT22;5184;51.376;7.148;2023-10-19T14:57:25;16.50;99.90
10278;DHT22;5184;51.376;7.148;2023-10-19T14:59:52;16.50;99.90
10278;DHT22;5184;51.376;7.148;2023-10-19T15:02:19;16.60;99.90
10278;DHT22;5184;51.376;7.148;2023-10-19T15:04:46;16.60;99.90
10278;DHT22;5184;51.376;7.148;2023-10-19T15:07:12;16.60;99.90
10278;DHT22;5184;51.376;7.148;2023-10-19T15:09:39;16.60;99.90
10278;DHT22;5184;51.376;7.148;2023-10-19T15:12:06;16.70;99.90
10278;DHT22;5184;51.376;7.148;2023-10-19T15:14:33;16.60;99.90
10278;DHT22;5184;51.376;7.148;2023-10-19T15:17:01;16.60;99.90
10278;DHT22;5184;51.376;7.148;2023-10-19T15:19:27;16.60;99.90
10278;DHT22;5184;51.376;7.148;2023-10-19T15:21:54;16.60;99.90
10278;DHT22;5184;51.376;7.148;2023-10-19T15:24:21;16.50;99.90
10278;DHT22;5184;51.376;7.148;2023-10-19T15:26:47;16.40;99.90
10278;DHT22;5184;51.376;7.148;2023-10-19T15:29:14;16.40;99.90
10278;DHT22;5184;51.376;7.148;2023-10-19T15:31:41;16.30;99.90
10278;DHT22;5184;51.376;7.148;2023-10-19T15:34:09;16.30;99.90
10278;DHT22;5184;51.376;7.148;2023-10-19T15:36:35;16.30;99.90
10278;DHT22;5184;51.376;7.148;2023-10-19T15:39:02;16.20;99.90
10278;DHT22;5184;51.376;7.148;2023-10-19T15:41:28;16.20;99.90
10278;DHT22;5184;51.376;7.148;2023-10-19T15:43:55;16.30;99.90
10278;DHT22;5184;51.376;7.148;2023-10-19T15:46:22;16.20;99.90